R.d. Riley — CZ4857 — position and weather

sailwx.info

Track history (hours):
 
Tides and Currents Weather Stations Pressure Air Temp Water Temp Dewpoint Dewpoint Depression Visibility Wind Speed Wind Dir Waves Ship Positions

R.d. Riley

Last reported at 2017-Nov-23 05:30 UTC. Time now 2017-Nov-23 05:43 UTC.
Position N 50°43' W 127°29'.

Length 19 m; draft 2.5 m.

Type: Pilot. MMSI: 316007942.

Date/timePositionNaut miles runAvg speedWind from/ knotsBaromVisibWave heightAir tempDewpointWater temp
2017-Nov-23 05:30N 50°43' W 127°29'0 0.0
2017-Nov-23 05:00N 50°43' W 127°29'0 0.0
2017-Nov-23 04:30N 50°43' W 127°29'0 0.0
2017-Nov-23 04:00N 50°43' W 127°29'0 0.0
2017-Nov-23 03:30N 50°43' W 127°29'0 0.0
2017-Nov-23 03:00N 50°43' W 127°29'0 0.0
2017-Nov-23 02:24N 50°43' W 127°29'0 0.0
2017-Nov-23 01:59N 50°43' W 127°29'0 0.0
2017-Nov-23 01:29N 50°43' W 127°29'0 0.0
2017-Nov-22 23:57N 50°43' W 127°29'0 0.0
2017-Nov-22 23:30N 50°43' W 127°29'0 0.0
2017-Nov-22 22:57N 50°43' W 127°29'0 0.0
2017-Nov-22 22:30N 50°43' W 127°29'0 0.0
2017-Nov-22 21:55N 50°43' W 127°29'0 0.0
2017-Nov-22 20:01N 50°43' W 127°29'0 0.0
2017-Nov-22 19:58N 50°43' W 127°29'0 0.0
2017-Nov-22 19:30N 50°43' W 127°29'  
2017-Nov-20 00:30N 50°49' W 127°32'1019.8
2017-Nov-20 00:00N 50°57' W 127°43'1 1.5
2017-Nov-19 23:30N 50°56' W 127°42'816.1
2017-Nov-19 23:00N 50°50' W 127°33'816.0
2017-Nov-19 22:30N 50°43' W 127°29'0 0.1
2017-Nov-19 21:38N 50°43' W 127°29'0 0.0
2017-Nov-19 21:31N 50°43' W 127°29'0 0.0
2017-Nov-19 20:18N 50°43' W 127°29'0 0.0
2017-Nov-19 19:57N 50°43' W 127°29'0 0.0
2017-Nov-19 19:14N 50°43' W 127°29'0 0.0
2017-Nov-19 18:56N 50°43' W 127°29'0 0.0
2017-Nov-19 18:29N 50°43' W 127°29'0 0.0
2017-Nov-19 18:00N 50°43' W 127°29'0 0.0
2017-Nov-19 17:30N 50°43' W 127°29'0 0.0
2017-Nov-19 17:00N 50°43' W 127°29'0 0.0
2017-Nov-19 16:30N 50°43' W 127°29'0 0.0
2017-Nov-19 16:00N 50°43' W 127°29'0 0.0
2017-Nov-19 15:31N 50°43' W 127°29'0 0.0
2017-Nov-19 15:00N 50°43' W 127°29'0 0.0
2017-Nov-19 14:30N 50°43' W 127°29'0 0.0
2017-Nov-19 14:00N 50°43' W 127°29'0 0.0
2017-Nov-19 13:19N 50°43' W 127°29'0 0.0
2017-Nov-19 10:55N 50°43' W 127°29'0 0.0
2017-Nov-19 10:29N 50°43' W 127°29'0 0.0
2017-Nov-19 09:11N 50°43' W 127°29'0 0.0
2017-Nov-19 08:46N 50°43' W 127°29'0 0.0
2017-Nov-19 08:31N 50°43' W 127°29'0 0.0
2017-Nov-19 07:58N 50°43' W 127°29'0 0.0
2017-Nov-19 07:25N 50°43' W 127°29'0 0.0
2017-Nov-19 06:52N 50°43' W 127°29'0 0.0
2017-Nov-19 06:25N 50°43' W 127°29'2 5.8
2017-Nov-19 06:00N 50°45' W 127°29'612.1
2017-Nov-19 05:30N 50°50' W 127°35'918.5
2017-Nov-19 05:00N 50°52' W 127°49'612.5
2017-Nov-19 04:29N 50°58' W 127°52'2 3.7
2017-Nov-19 04:00N 50°58' W 127°49'611.2
2017-Nov-19 03:29N 50°52' W 127°50'1021.3
2017-Nov-19 03:00N 50°48' W 127°35'712.9
2017-Nov-19 02:28N 50°43' W 127°29'0 0.0
2017-Nov-19 01:59N 50°43' W 127°29'0 0.0
2017-Nov-19 01:30N 50°43' W 127°29'0 0.0
2017-Nov-19 01:00N 50°43' W 127°29'0 0.0
2017-Nov-19 00:30N 50°43' W 127°29'0 0.0
2017-Nov-19 00:00N 50°43' W 127°29'0 0.0
2017-Nov-18 23:30N 50°43' W 127°29'0 0.0
2017-Nov-18 23:00N 50°43' W 127°29'0 0.0
2017-Nov-18 22:30N 50°43' W 127°29'0 0.0
2017-Nov-18 22:00N 50°43' W 127°29'0 0.0
2017-Nov-18 21:30N 50°43' W 127°29'0 0.0
2017-Nov-18 20:59N 50°43' W 127°29'0 0.0
2017-Nov-18 20:30N 50°43' W 127°29'0 0.0
2017-Nov-18 20:00N 50°43' W 127°29'510.1
2017-Nov-18 19:30N 50°47' W 127°31'918.0
2017-Nov-18 19:00N 50°51' W 127°44'713.8
2017-Nov-18 18:30N 50°57' W 127°49'612.1
2017-Nov-18 18:01N 50°54' W 127°40'1020.1
2017-Nov-18 17:29N 50°47' W 127°29'4 8.1
2017-Nov-18 16:59N 50°43' W 127°29'0 0.0
2017-Nov-18 07:26N 50°43' W 127°29'0 0.0
2017-Nov-18 07:00N 50°43' W 127°29'0 0.0
2017-Nov-18 06:30N 50°43' W 127°29'0 0.0
2017-Nov-18 05:59N 50°43' W 127°29'0 0.0
2017-Nov-18 05:30N 50°43' W 127°29'0 0.0
2017-Nov-18 04:29N 50°43' W 127°29'0 0.0
2017-Nov-18 03:58N 50°43' W 127°29'0 0.0
2017-Nov-18 01:03N 50°43' W 127°29'1 6.2
2017-Nov-18 00:58N 50°43' W 127°29'817.9
2017-Nov-18 00:30N 50°51' W 127°34'9 2.7
2017-Nov-17 21:17N 50°43' W 127°29'0 0.0
2017-Nov-17 21:00N 50°43' W 127°29'0 0.0
2017-Nov-17 20:30N 50°43' W 127°29'0 0.0
2017-Nov-17 20:00N 50°43' W 127°29'0 0.0
2017-Nov-17 19:30N 50°43' W 127°29'0 0.0
2017-Nov-17 18:56N 50°43' W 127°29'0 0.0
2017-Nov-17 18:30N 50°43' W 127°29'0 0.0
2017-Nov-17 17:58N 50°43' W 127°29'0 0.0
2017-Nov-17 17:30N 50°43' W 127°29'0 0.0
2017-Nov-17 10:37N 50°43' W 127°29'1 6.9
2017-Nov-17 10:30N 50°43' W 127°29'918.0
2017-Nov-17 10:00N 50°51' W 127°36'1020.2
2017-Nov-17 09:30N 50°58' W 127°47'1 2.9
2017-Nov-17 09:00N 50°58' W 127°45'918.7
2017-Nov-17 08:30N 50°50' W 127°36'816.8
2017-Nov-17 08:00N 50°43' W 127°29'1 1.3
2017-Nov-17 07:30N 50°43' W 127°29'0 0.0
2017-Nov-17 06:58N 50°43' W 127°29'0 0.0
2017-Nov-17 06:30N 50°43' W 127°29'0 0.0
2017-Nov-17 05:45N 50°43' W 127°29'0 0.0
2017-Nov-17 05:30N 50°43' W 127°29'0 0.0
2017-Nov-17 05:00N 50°43' W 127°29'0 0.0
2017-Nov-17 04:30N 50°43' W 127°29'0 0.0
2017-Nov-17 04:00N 50°43' W 127°29'0 0.0
2017-Nov-17 03:30N 50°43' W 127°29'0 0.0
2017-Nov-17 03:00N 50°43' W 127°29'0 0.0
2017-Nov-17 02:30N 50°43' W 127°29'0 0.0
2017-Nov-17 01:51N 50°43' W 127°29'0 0.0
2017-Nov-16 23:44N 50°43' W 127°29'0 0.0
2017-Nov-16 23:30N 50°43' W 127°29'0 0.0
2017-Nov-16 23:00N 50°43' W 127°29'0 0.0
2017-Nov-16 22:30N 50°43' W 127°29'0 0.0
2017-Nov-16 22:00N 50°43' W 127°29'0 0.0
2017-Nov-16 21:30N 50°43' W 127°29'0 0.0
2017-Nov-16 21:00N 50°43' W 127°29'0 0.0
2017-Nov-16 20:30N 50°43' W 127°29'0 0.0
2017-Nov-16 20:00N 50°43' W 127°29'0 0.0
2017-Nov-16 19:30N 50°43' W 127°29'0 0.0
2017-Nov-16 19:00N 50°43' W 127°29'0 0.0
2017-Nov-16 18:30N 50°43' W 127°29'1 1.6
2017-Nov-16 17:59N 50°43' W 127°29'919.7
2017-Nov-16 17:31N 50°52' W 127°36'1120.6
2017-Nov-16 16:59N 50°60' W 127°47'918.8
2017-Nov-16 16:31N 50°53' W 127°37'1019.9
2017-Nov-16 16:01N 50°45' W 127°29'2 4.3
2017-Nov-16 15:30N 50°43' W 127°29'0 0.0
2017-Nov-16 15:00N 50°43' W 127°29'0 0.0
2017-Nov-16 14:30N 50°43' W 127°29'0 0.0
2017-Nov-16 14:00N 50°43' W 127°29'0 0.0
2017-Nov-16 13:30N 50°43' W 127°29'0 0.0
2017-Nov-16 13:00N 50°43' W 127°29'0 0.0
2017-Nov-16 12:30N 50°43' W 127°29'0 0.0
2017-Nov-16 12:00N 50°43' W 127°29'0 0.0
2017-Nov-16 11:03N 50°43' W 127°29'0 0.0
2017-Nov-16 10:52N 50°43' W 127°29'0 0.0
2017-Nov-16 10:29N 50°43' W 127°29'0 0.0
2017-Nov-16 09:55N 50°43' W 127°29'0 0.0
2017-Nov-16 09:30N 50°43' W 127°29'0 0.0
2017-Nov-16 09:00N 50°43' W 127°29'0 0.0
2017-Nov-16 08:30N 50°43' W 127°29'0 0.0
2017-Nov-16 07:59N 50°43' W 127°29'0 0.0
2017-Nov-16 07:26N 50°43' W 127°29'0 0.0
2017-Nov-16 06:45N 50°43' W 127°29'0 0.0
2017-Nov-16 06:30N 50°43' W 127°29'0 0.0
2017-Nov-16 05:57N 50°43' W 127°29'0 0.0
2017-Nov-16 05:14N 50°43' W 127°29'0 0.0
2017-Nov-16 04:59N 50°43' W 127°29'0 0.0
2017-Nov-16 04:30N 50°43' W 127°29'0 0.0
2017-Nov-16 04:00N 50°43' W 127°29'0 0.0
2017-Nov-16 03:30N 50°43' W 127°29'0 0.0
2017-Nov-16 02:56N 50°43' W 127°29'0 0.0
2017-Nov-16 02:27N 50°43' W 127°29'0 0.0
2017-Nov-16 01:59N 50°43' W 127°29'0 0.0
2017-Nov-16 01:30N 50°43' W 127°29'0 0.0
2017-Nov-16 01:00N 50°43' W 127°29'0 0.0
2017-Nov-16 00:30N 50°43' W 127°29'0 0.0
2017-Nov-16 00:00N 50°43' W 127°29'0 0.0
2017-Nov-15 21:10N 50°43' W 127°29'0 0.0
2017-Nov-15 21:00N 50°43' W 127°29'0 0.0
2017-Nov-15 20:30N 50°43' W 127°29'0 0.0
2017-Nov-15 20:00N 50°43' W 127°29'0 0.0
2017-Nov-15 19:30N 50°43' W 127°29'0 0.0
2017-Nov-15 19:00N 50°43' W 127°29'0 0.0
2017-Nov-15 18:30N 50°43' W 127°29'0 0.0
2017-Nov-15 17:42N 50°43' W 127°29'0 0.0
2017-Nov-15 17:23N 50°43' W 127°29'0 0.0
2017-Nov-15 16:52N 50°43' W 127°29'0 0.0
2017-Nov-15 16:28N 50°43' W 127°29'0 0.0
2017-Nov-15 13:24N 50°43' W 127°29'0 0.0
2017-Nov-15 13:00N 50°43' W 127°29'0 0.0
2017-Nov-15 12:27N 50°43' W 127°29'0 0.0
2017-Nov-15 11:29N 50°43' W 127°29'0 0.0
2017-Nov-15 11:00N 50°43' W 127°29'0 0.0
2017-Nov-15 10:10N 50°43' W 127°29'0 0.0
2017-Nov-15 09:39N 50°43' W 127°29'0 0.0
2017-Nov-15 09:21N 50°43' W 127°29'0 0.0
2017-Nov-15 09:00N 50°43' W 127°29'0 0.0
2017-Nov-15 08:30N 50°43' W 127°29'0 0.0
2017-Nov-15 07:58N 50°43' W 127°29'0 0.0
2017-Nov-15 07:30N 50°43' W 127°29'0 0.0
2017-Nov-15 06:33N 50°43' W 127°29'0 0.0
2017-Nov-15 06:30N 50°43' W 127°29'0 0.0
2017-Nov-15 06:00N 50°43' W 127°29'0 0.0
2017-Nov-15 05:30N 50°43' W 127°29'0 0.0
2017-Nov-15 05:00N 50°43' W 127°29'0 0.0
2017-Nov-15 04:30N 50°43' W 127°29'0 0.0
2017-Nov-15 04:00N 50°43' W 127°29'0 0.0
2017-Nov-15 03:05N 50°43' W 127°29'0 0.0
2017-Nov-15 03:00N 50°43' W 127°29'0 0.0
2017-Nov-15 02:30N 50°43' W 127°29'0 0.0
2017-Nov-15 02:00N 50°43' W 127°29'0 0.0
2017-Nov-15 01:30N 50°43' W 127°29'0 0.0
2017-Nov-15 01:00N 50°43' W 127°29'0 0.0
2017-Nov-15 00:30N 50°43' W 127°29'0 0.0
2017-Nov-15 00:00N 50°43' W 127°29'0 0.0
2017-Nov-14 23:30N 50°43' W 127°29'0 0.0
2017-Nov-14 23:00N 50°43' W 127°29'0 0.0
2017-Nov-14 22:30N 50°43' W 127°29'0 0.0
2017-Nov-14 22:00N 50°43' W 127°29'0 0.0
2017-Nov-14 21:30N 50°43' W 127°29'0 0.0
2017-Nov-14 21:00N 50°43' W 127°29'0 0.0
2017-Nov-14 20:30N 50°43' W 127°29'0 0.0
2017-Nov-14 20:00N 50°43' W 127°29'0 0.0
2017-Nov-14 19:30N 50°43' W 127°29'0 0.0
2017-Nov-14 19:00N 50°43' W 127°29'0 0.0
2017-Nov-14 18:30N 50°43' W 127°29'0 0.0
2017-Nov-14 17:55N 50°43' W 127°29'0 0.0
2017-Nov-14 17:15N 50°43' W 127°29'0 0.0
2017-Nov-14 16:51N 50°43' W 127°29'0 0.0
2017-Nov-14 16:26N 50°43' W 127°29'0 0.0
2017-Nov-14 15:59N 50°43' W 127°29'0 0.0
2017-Nov-14 15:29N 50°43' W 127°29'0 0.0
2017-Nov-14 14:59N 50°43' W 127°29'0 0.0
2017-Nov-14 14:30N 50°43' W 127°29'0 0.0
2017-Nov-14 14:00N 50°43' W 127°29'0 0.0
2017-Nov-14 13:30N 50°43' W 127°29'0 0.0
2017-Nov-14 13:00N 50°43' W 127°29'0 0.0
2017-Nov-14 12:30N 50°43' W 127°29'0 0.0
2017-Nov-14 12:00N 50°43' W 127°29'0 0.0
2017-Nov-14 11:30N 50°43' W 127°29'0 0.0
2017-Nov-14 11:00N 50°43' W 127°29'0 0.0
2017-Nov-14 10:30N 50°43' W 127°29'0 0.0
2017-Nov-14 10:00N 50°43' W 127°29'0 0.0
2017-Nov-14 08:19N 50°43' W 127°29'0 0.0
2017-Nov-14 08:00N 50°43' W 127°29'0 0.0
2017-Nov-14 07:22N 50°43' W 127°29'0 0.0
2017-Nov-14 07:00N 50°43' W 127°29'0 0.0
2017-Nov-14 06:29N 50°43' W 127°29'0 0.0
2017-Nov-14 05:51N 50°43' W 127°29'0 0.0
2017-Nov-14 04:40N 50°43' W 127°29'0 0.0
2017-Nov-14 04:21N 50°43' W 127°29'0 0.0
2017-Nov-14 02:40N 50°43' W 127°29'0 0.0
2017-Nov-14 02:30N 50°43' W 127°29'0 0.0
2017-Nov-14 02:00N 50°43' W 127°29'0 0.0
2017-Nov-14 01:30N 50°43' W 127°29'0 0.0
2017-Nov-14 01:00N 50°43' W 127°29'0 0.0
2017-Nov-14 00:18N 50°43' W 127°29'0 0.0
2017-Nov-14 00:00N 50°43' W 127°29'0 0.0
2017-Nov-13 23:30N 50°43' W 127°29'0 0.0
2017-Nov-13 22:57N 50°43' W 127°29'0 0.0
2017-Nov-13 22:28N 50°43' W 127°29'0 0.0
2017-Nov-13 21:58N 50°43' W 127°29'  
Track history (hours):
 
Tides and Currents Weather Stations Pressure Air Temp Water Temp Dewpoint Dewpoint Depression Visibility Wind Speed Wind Dir Waves Ship Positions

R.d. Riley

Last reported at 2017-Nov-23 05:30 UTC. Time now 2017-Nov-23 05:43 UTC.
Position N 50°43' W 127°29'.

Length 19 m; draft 2.5 m.

Type: Pilot. MMSI: 316007942.

Date/timePositionNaut miles runAvg speedWind from/ knotsBaromVisibWave heightAir tempDewpointWater temp
2017-Nov-23 05:30N 50°43' W 127°29'0 0.0
2017-Nov-23 05:00N 50°43' W 127°29'0 0.0
2017-Nov-23 04:30N 50°43' W 127°29'0 0.0
2017-Nov-23 04:00N 50°43' W 127°29'0 0.0
2017-Nov-23 03:30N 50°43' W 127°29'0 0.0
2017-Nov-23 03:00N 50°43' W 127°29'0 0.0
2017-Nov-23 02:24N 50°43' W 127°29'0 0.0
2017-Nov-23 01:59N 50°43' W 127°29'0 0.0
2017-Nov-23 01:29N 50°43' W 127°29'0 0.0
2017-Nov-22 23:57N 50°43' W 127°29'0 0.0
2017-Nov-22 23:30N 50°43' W 127°29'0 0.0
2017-Nov-22 22:57N 50°43' W 127°29'0 0.0
2017-Nov-22 22:30N 50°43' W 127°29'0 0.0
2017-Nov-22 21:55N 50°43' W 127°29'0 0.0
2017-Nov-22 20:01N 50°43' W 127°29'0 0.0
2017-Nov-22 19:58N 50°43' W 127°29'0 0.0
2017-Nov-22 19:30N 50°43' W 127°29'  
2017-Nov-20 00:30N 50°49' W 127°32'1019.8
2017-Nov-20 00:00N 50°57' W 127°43'1 1.5
2017-Nov-19 23:30N 50°56' W 127°42'816.1
2017-Nov-19 23:00N 50°50' W 127°33'816.0
2017-Nov-19 22:30N 50°43' W 127°29'0 0.1
2017-Nov-19 21:38N 50°43' W 127°29'0 0.0
2017-Nov-19 21:31N 50°43' W 127°29'0 0.0
2017-Nov-19 20:18N 50°43' W 127°29'0 0.0
2017-Nov-19 19:57N 50°43' W 127°29'0 0.0
2017-Nov-19 19:14N 50°43' W 127°29'0 0.0
2017-Nov-19 18:56N 50°43' W 127°29'0 0.0
2017-Nov-19 18:29N 50°43' W 127°29'0 0.0
2017-Nov-19 18:00N 50°43' W 127°29'0 0.0
2017-Nov-19 17:30N 50°43' W 127°29'0 0.0
2017-Nov-19 17:00N 50°43' W 127°29'0 0.0
2017-Nov-19 16:30N 50°43' W 127°29'0 0.0
2017-Nov-19 16:00N 50°43' W 127°29'0 0.0
2017-Nov-19 15:31N 50°43' W 127°29'0 0.0
2017-Nov-19 15:00N 50°43' W 127°29'0 0.0
2017-Nov-19 14:30N 50°43' W 127°29'0 0.0
2017-Nov-19 14:00N 50°43' W 127°29'0 0.0
2017-Nov-19 13:19N 50°43' W 127°29'0 0.0
2017-Nov-19 10:55N 50°43' W 127°29'0 0.0
2017-Nov-19 10:29N 50°43' W 127°29'0 0.0
2017-Nov-19 09:11N 50°43' W 127°29'0 0.0
2017-Nov-19 08:46N 50°43' W 127°29'0 0.0
2017-Nov-19 08:31N 50°43' W 127°29'0 0.0
2017-Nov-19 07:58N 50°43' W 127°29'0 0.0
2017-Nov-19 07:25N 50°43' W 127°29'0 0.0
2017-Nov-19 06:52N 50°43' W 127°29'0 0.0
2017-Nov-19 06:25N 50°43' W 127°29'2 5.8
2017-Nov-19 06:00N 50°45' W 127°29'612.1
2017-Nov-19 05:30N 50°50' W 127°35'918.5
2017-Nov-19 05:00N 50°52' W 127°49'612.5
2017-Nov-19 04:29N 50°58' W 127°52'2 3.7
2017-Nov-19 04:00N 50°58' W 127°49'611.2
2017-Nov-19 03:29N 50°52' W 127°50'1021.3
2017-Nov-19 03:00N 50°48' W 127°35'712.9
2017-Nov-19 02:28N 50°43' W 127°29'0 0.0
2017-Nov-19 01:59N 50°43' W 127°29'0 0.0
2017-Nov-19 01:30N 50°43' W 127°29'0 0.0
2017-Nov-19 01:00N 50°43' W 127°29'0 0.0
2017-Nov-19 00:30N 50°43' W 127°29'0 0.0
2017-Nov-19 00:00N 50°43' W 127°29'0 0.0
2017-Nov-18 23:30N 50°43' W 127°29'0 0.0
2017-Nov-18 23:00N 50°43' W 127°29'0 0.0
2017-Nov-18 22:30N 50°43' W 127°29'0 0.0
2017-Nov-18 22:00N 50°43' W 127°29'0 0.0
2017-Nov-18 21:30N 50°43' W 127°29'0 0.0
2017-Nov-18 20:59N 50°43' W 127°29'0 0.0
2017-Nov-18 20:30N 50°43' W 127°29'0 0.0
2017-Nov-18 20:00N 50°43' W 127°29'510.1
2017-Nov-18 19:30N 50°47' W 127°31'918.0
2017-Nov-18 19:00N 50°51' W 127°44'713.8
2017-Nov-18 18:30N 50°57' W 127°49'612.1
2017-Nov-18 18:01N 50°54' W 127°40'1020.1
2017-Nov-18 17:29N 50°47' W 127°29'4 8.1
2017-Nov-18 16:59N 50°43' W 127°29'0 0.0
2017-Nov-18 07:26N 50°43' W 127°29'0 0.0
2017-Nov-18 07:00N 50°43' W 127°29'0 0.0
2017-Nov-18 06:30N 50°43' W 127°29'0 0.0
2017-Nov-18 05:59N 50°43' W 127°29'0 0.0
2017-Nov-18 05:30N 50°43' W 127°29'0 0.0
2017-Nov-18 04:29N 50°43' W 127°29'0 0.0
2017-Nov-18 03:58N 50°43' W 127°29'0 0.0
2017-Nov-18 01:03N 50°43' W 127°29'1 6.2
2017-Nov-18 00:58N 50°43' W 127°29'817.9
2017-Nov-18 00:30N 50°51' W 127°34'9 2.7
2017-Nov-17 21:17N 50°43' W 127°29'0 0.0
2017-Nov-17 21:00N 50°43' W 127°29'0 0.0
2017-Nov-17 20:30N 50°43' W 127°29'0 0.0
2017-Nov-17 20:00N 50°43' W 127°29'0 0.0
2017-Nov-17 19:30N 50°43' W 127°29'0 0.0
2017-Nov-17 18:56N 50°43' W 127°29'0 0.0
2017-Nov-17 18:30N 50°43' W 127°29'0 0.0
2017-Nov-17 17:58N 50°43' W 127°29'0 0.0
2017-Nov-17 17:30N 50°43' W 127°29'0 0.0
2017-Nov-17 10:37N 50°43' W 127°29'1 6.9
2017-Nov-17 10:30N 50°43' W 127°29'918.0
2017-Nov-17 10:00N 50°51' W 127°36'1020.2
2017-Nov-17 09:30N 50°58' W 127°47'1 2.9
2017-Nov-17 09:00N 50°58' W 127°45'918.7
2017-Nov-17 08:30N 50°50' W 127°36'816.8
2017-Nov-17 08:00N 50°43' W 127°29'1 1.3
2017-Nov-17 07:30N 50°43' W 127°29'0 0.0
2017-Nov-17 06:58N 50°43' W 127°29'0 0.0
2017-Nov-17 06:30N 50°43' W 127°29'0 0.0
2017-Nov-17 05:45N 50°43' W 127°29'0 0.0
2017-Nov-17 05:30N 50°43' W 127°29'0 0.0
2017-Nov-17 05:00N 50°43' W 127°29'0 0.0
2017-Nov-17 04:30N 50°43' W 127°29'0 0.0
2017-Nov-17 04:00N 50°43' W 127°29'0 0.0
2017-Nov-17 03:30N 50°43' W 127°29'0 0.0
2017-Nov-17 03:00N 50°43' W 127°29'0 0.0
2017-Nov-17 02:30N 50°43' W 127°29'0 0.0
2017-Nov-17 01:51N 50°43' W 127°29'0 0.0
2017-Nov-16 23:44N 50°43' W 127°29'0 0.0
2017-Nov-16 23:30N 50°43' W 127°29'0 0.0
2017-Nov-16 23:00N 50°43' W 127°29'0 0.0
2017-Nov-16 22:30N 50°43' W 127°29'0 0.0
2017-Nov-16 22:00N 50°43' W 127°29'0 0.0
2017-Nov-16 21:30N 50°43' W 127°29'0 0.0
2017-Nov-16 21:00N 50°43' W 127°29'0 0.0
2017-Nov-16 20:30N 50°43' W 127°29'0 0.0
2017-Nov-16 20:00N 50°43' W 127°29'0 0.0
2017-Nov-16 19:30N 50°43' W 127°29'0 0.0
2017-Nov-16 19:00N 50°43' W 127°29'0 0.0
2017-Nov-16 18:30N 50°43' W 127°29'1 1.6
2017-Nov-16 17:59N 50°43' W 127°29'919.7
2017-Nov-16 17:31N 50°52' W 127°36'1120.6
2017-Nov-16 16:59N 50°60' W 127°47'918.8
2017-Nov-16 16:31N 50°53' W 127°37'1019.9
2017-Nov-16 16:01N 50°45' W 127°29'2 4.3
2017-Nov-16 15:30N 50°43' W 127°29'0 0.0
2017-Nov-16 15:00N 50°43' W 127°29'0 0.0
2017-Nov-16 14:30N 50°43' W 127°29'0 0.0
2017-Nov-16 14:00N 50°43' W 127°29'0 0.0
2017-Nov-16 13:30N 50°43' W 127°29'0 0.0
2017-Nov-16 13:00N 50°43' W 127°29'0 0.0
2017-Nov-16 12:30N 50°43' W 127°29'0 0.0
2017-Nov-16 12:00N 50°43' W 127°29'0 0.0
2017-Nov-16 11:03N 50°43' W 127°29'0 0.0
2017-Nov-16 10:52N 50°43' W 127°29'0 0.0
2017-Nov-16 10:29N 50°43' W 127°29'0 0.0
2017-Nov-16 09:55N 50°43' W 127°29'0 0.0
2017-Nov-16 09:30N 50°43' W 127°29'0 0.0
2017-Nov-16 09:00N 50°43' W 127°29'0 0.0
2017-Nov-16 08:30N 50°43' W 127°29'0 0.0
2017-Nov-16 07:59N 50°43' W 127°29'0 0.0
2017-Nov-16 07:26N 50°43' W 127°29'0 0.0
2017-Nov-16 06:45N 50°43' W 127°29'0 0.0
2017-Nov-16 06:30N 50°43' W 127°29'0 0.0
2017-Nov-16 05:57N 50°43' W 127°29'0 0.0
2017-Nov-16 05:14N 50°43' W 127°29'0 0.0
2017-Nov-16 04:59N 50°43' W 127°29'0 0.0
2017-Nov-16 04:30N 50°43' W 127°29'0 0.0
2017-Nov-16 04:00N 50°43' W 127°29'0 0.0
2017-Nov-16 03:30N 50°43' W 127°29'0 0.0
2017-Nov-16 02:56N 50°43' W 127°29'0 0.0
2017-Nov-16 02:27N 50°43' W 127°29'0 0.0
2017-Nov-16 01:59N 50°43' W 127°29'0 0.0
2017-Nov-16 01:30N 50°43' W 127°29'0 0.0
2017-Nov-16 01:00N 50°43' W 127°29'0 0.0
2017-Nov-16 00:30N 50°43' W 127°29'0 0.0
2017-Nov-16 00:00N 50°43' W 127°29'0 0.0
2017-Nov-15 21:10N 50°43' W 127°29'0 0.0
2017-Nov-15 21:00N 50°43' W 127°29'0 0.0
2017-Nov-15 20:30N 50°43' W 127°29'0 0.0
2017-Nov-15 20:00N 50°43' W 127°29'0 0.0
2017-Nov-15 19:30N 50°43' W 127°29'0 0.0
2017-Nov-15 19:00N 50°43' W 127°29'0 0.0
2017-Nov-15 18:30N 50°43' W 127°29'0 0.0
2017-Nov-15 17:42N 50°43' W 127°29'0 0.0
2017-Nov-15 17:23N 50°43' W 127°29'0 0.0
2017-Nov-15 16:52N 50°43' W 127°29'0 0.0
2017-Nov-15 16:28N 50°43' W 127°29'0 0.0
2017-Nov-15 13:24N 50°43' W 127°29'0 0.0
2017-Nov-15 13:00N 50°43' W 127°29'0 0.0
2017-Nov-15 12:27N 50°43' W 127°29'0 0.0
2017-Nov-15 11:29N 50°43' W 127°29'0 0.0
2017-Nov-15 11:00N 50°43' W 127°29'0 0.0
2017-Nov-15 10:10N 50°43' W 127°29'0 0.0
2017-Nov-15 09:39N 50°43' W 127°29'0 0.0
2017-Nov-15 09:21N 50°43' W 127°29'0 0.0
2017-Nov-15 09:00N 50°43' W 127°29'0 0.0
2017-Nov-15 08:30N 50°43' W 127°29'0 0.0
2017-Nov-15 07:58N 50°43' W 127°29'0 0.0
2017-Nov-15 07:30N 50°43' W 127°29'0 0.0
2017-Nov-15 06:33N 50°43' W 127°29'0 0.0
2017-Nov-15 06:30N 50°43' W 127°29'0 0.0
2017-Nov-15 06:00N 50°43' W 127°29'0 0.0
2017-Nov-15 05:30N 50°43' W 127°29'0 0.0
2017-Nov-15 05:00N 50°43' W 127°29'0 0.0
2017-Nov-15 04:30N 50°43' W 127°29'0 0.0
2017-Nov-15 04:00N 50°43' W 127°29'0 0.0
2017-Nov-15 03:05N 50°43' W 127°29'0 0.0
2017-Nov-15 03:00N 50°43' W 127°29'0 0.0
2017-Nov-15 02:30N 50°43' W 127°29'0 0.0
2017-Nov-15 02:00N 50°43' W 127°29'0 0.0
2017-Nov-15 01:30N 50°43' W 127°29'0 0.0
2017-Nov-15 01:00N 50°43' W 127°29'0 0.0
2017-Nov-15 00:30N 50°43' W 127°29'0 0.0
2017-Nov-15 00:00N 50°43' W 127°29'0 0.0
2017-Nov-14 23:30N 50°43' W 127°29'0 0.0
2017-Nov-14 23:00N 50°43' W 127°29'0 0.0
2017-Nov-14 22:30N 50°43' W 127°29'0 0.0
2017-Nov-14 22:00N 50°43' W 127°29'0 0.0
2017-Nov-14 21:30N 50°43' W 127°29'0 0.0
2017-Nov-14 21:00N 50°43' W 127°29'0 0.0
2017-Nov-14 20:30N 50°43' W 127°29'0 0.0
2017-Nov-14 20:00N 50°43' W 127°29'0 0.0
2017-Nov-14 19:30N 50°43' W 127°29'0 0.0
2017-Nov-14 19:00N 50°43' W 127°29'0 0.0
2017-Nov-14 18:30N 50°43' W 127°29'0 0.0
2017-Nov-14 17:55N 50°43' W 127°29'0 0.0
2017-Nov-14 17:15N 50°43' W 127°29'0 0.0
2017-Nov-14 16:51N 50°43' W 127°29'0 0.0
2017-Nov-14 16:26N 50°43' W 127°29'0 0.0
2017-Nov-14 15:59N 50°43' W 127°29'0 0.0
2017-Nov-14 15:29N 50°43' W 127°29'0 0.0
2017-Nov-14 14:59N 50°43' W 127°29'0 0.0
2017-Nov-14 14:30N 50°43' W 127°29'0 0.0
2017-Nov-14 14:00N 50°43' W 127°29'0 0.0
2017-Nov-14 13:30N 50°43' W 127°29'0 0.0
2017-Nov-14 13:00N 50°43' W 127°29'0 0.0
2017-Nov-14 12:30N 50°43' W 127°29'0 0.0
2017-Nov-14 12:00N 50°43' W 127°29'0 0.0
2017-Nov-14 11:30N 50°43' W 127°29'0 0.0
2017-Nov-14 11:00N 50°43' W 127°29'0 0.0
2017-Nov-14 10:30N 50°43' W 127°29'0 0.0
2017-Nov-14 10:00N 50°43' W 127°29'0 0.0
2017-Nov-14 08:19N 50°43' W 127°29'0 0.0
2017-Nov-14 08:00N 50°43' W 127°29'0 0.0
2017-Nov-14 07:22N 50°43' W 127°29'0 0.0
2017-Nov-14 07:00N 50°43' W 127°29'0 0.0
2017-Nov-14 06:29N 50°43' W 127°29'0 0.0
2017-Nov-14 05:51N 50°43' W 127°29'0 0.0
2017-Nov-14 04:40N 50°43' W 127°29'0 0.0
2017-Nov-14 04:21N 50°43' W 127°29'0 0.0
2017-Nov-14 02:40N 50°43' W 127°29'0 0.0
2017-Nov-14 02:30N 50°43' W 127°29'0 0.0
2017-Nov-14 02:00N 50°43' W 127°29'0 0.0
2017-Nov-14 01:30N 50°43' W 127°29'0 0.0
2017-Nov-14 01:00N 50°43' W 127°29'0 0.0
2017-Nov-14 00:18N 50°43' W 127°29'0 0.0
2017-Nov-14 00:00N 50°43' W 127°29'0 0.0
2017-Nov-13 23:30N 50°43' W 127°29'0 0.0
2017-Nov-13 22:57N 50°43' W 127°29'0 0.0
2017-Nov-13 22:28N 50°43' W 127°29'0 0.0
2017-Nov-13 21:58N 50°43' W 127°29'  

Dump ship's entire track history